Time;durP1;ratioP1;P1;durP2;ratioP2;P2;SDS_P1;SDS_P2;PMS_P1;PMS_P2;Temp;Humidity;BMP_temperature;BMP_pressure;BME280_temperature;BME280_humidity;BME280_pressure;Samples;Min_cycle;Max_cycle;Signal;HPM_P1;HPM_P2
2023/12/18 00:02:05;;;;;;;;;;;1.90;99.90;;;;;;5013708;28;19945;-65
2023/12/18 00:04:31;;;;;;;;;;;1.70;99.90;;;;;;5013855;28;19947;-64
2023/12/18 00:06:56;;;;;;;;;;;1.70;99.90;;;;;;5015294;28;19996;-73
2023/12/18 00:09:22;;;;;;;;;;;1.70;99.90;;;;;;5020491;28;19969;-65
2023/12/18 00:11:47;;;;;;;;;;;1.70;99.90;;;;;;5016750;28;19973;-64
2023/12/18 00:14:13;;;;;;;;;;;1.70;99.90;;;;;;5012895;28;19951;-64
2023/12/18 00:16:38;;;;;;;;;;;1.70;99.90;;;;;;5015248;28;20007;-64
2023/12/18 00:19:07;;;;;;;;;;;1.80;99.90;;;;;;5021842;28;20086;-68
2023/12/18 00:21:32;;;;;;;;;;;1.70;99.90;;;;;;5013836;28;20519;-68
2023/12/18 00:23:58;;;;;;;;;;;1.70;99.90;;;;;;5015012;28;19962;-69
2023/12/18 00:26:23;;;;;;;;;;;1.70;99.90;;;;;;5010331;28;20538;-68
2023/12/18 00:28:49;;;;;;;;;;;1.70;99.90;;;;;;5012288;28;19982;-69
2023/12/18 00:31:15;;;;;;;;;;;1.60;99.90;;;;;;5015387;28;20419;-69
2023/12/18 00:33:40;;;;;;;;;;;1.50;99.90;;;;;;5015712;28;19943;-68
2023/12/18 00:36:06;;;;;;;;;;;1.50;99.90;;;;;;5012579;28;19941;-69
2023/12/18 00:38:31;;;;;;;;;;;1.50;99.90;;;;;;5017710;28;20025;-69
2023/12/18 00:40:57;;;;;;;;;;;1.50;99.90;;;;;;5014550;28;19952;-69
2023/12/18 00:43:22;;;;;;;;;;;1.50;99.90;;;;;;5016631;28;19945;-69
2023/12/18 00:45:48;;;;;;;;;;;1.40;99.90;;;;;;5010609;28;20402;-69
2023/12/18 00:48:13;;;;;;;;;;;1.40;99.90;;;;;;5020307;28;19949;-69
2023/12/18 00:50:39;;;;;;;;;;;1.30;99.90;;;;;;5013708;28;19966;-68
2023/12/18 00:53:04;;;;;;;;;;;1.30;99.90;;;;;;5017984;28;19954;-69
2023/12/18 00:55:29;;;;;;;;;;;1.30;99.90;;;;;;5013375;28;20018;-70
2023/12/18 00:57:55;;;;;;;;;;;1.30;99.90;;;;;;5013896;28;19943;-69
2023/12/18 01:00:21;;;;;;;;;;;1.40;99.90;;;;;;5016215;28;19959;-69
2023/12/18 01:02:47;;;;;;;;;;;1.40;99.90;;;;;;5015693;28;20527;-69
2023/12/18 01:05:13;;;;;;;;;;;1.40;99.90;;;;;;5012657;28;20420;-69
2023/12/18 01:07:40;;;;;;;;;;;1.40;99.90;;;;;;5007529;28;19952;-69
2023/12/18 01:10:06;;;;;;;;;;;1.30;99.90;;;;;;5012317;28;19982;-69
2023/12/18 01:12:31;;;;;;;;;;;1.20;99.90;;;;;;5013702;28;19954;-65
2023/12/18 01:14:56;;;;;;;;;;;1.20;99.90;;;;;;5006632;28;21313;-69
2023/12/18 01:17:22;;;;;;;;;;;1.10;99.90;;;;;;5015768;28;19942;-69
2023/12/18 01:19:47;;;;;;;;;;;1.10;99.90;;;;;;5015280;28;20753;-69
2023/12/18 01:22:13;;;;;;;;;;;1.10;99.90;;;;;;5016021;28;19945;-69
2023/12/18 01:24:38;;;;;;;;;;;1.00;99.90;;;;;;5007721;28;20479;-69
2023/12/18 01:27:04;;;;;;;;;;;1.20;99.90;;;;;;5011032;28;20085;-69
2023/12/18 01:29:29;;;;;;;;;;;1.20;99.90;;;;;;5012452;28;20306;-69
2023/12/18 01:31:55;;;;;;;;;;;1.20;99.90;;;;;;5012583;28;20452;-69
2023/12/18 01:34:21;;;;;;;;;;;1.20;99.90;;;;;;5013244;28;19975;-68
2023/12/18 01:36:46;;;;;;;;;;;1.20;99.90;;;;;;5009481;28;20576;-68
2023/12/18 01:39:12;;;;;;;;;;;1.20;99.90;;;;;;5010387;28;19962;-69
2023/12/18 01:41:37;;;;;;;;;;;1.20;99.90;;;;;;5028207;28;20074;-68
2023/12/18 01:44:03;;;;;;;;;;;1.20;99.90;;;;;;5011246;28;19957;-68
2023/12/18 01:46:28;;;;;;;;;;;1.10;99.90;;;;;;5013163;28;20451;-69
2023/12/18 01:48:54;;;;;;;;;;;1.10;99.90;;;;;;5013330;28;19990;-68
2023/12/18 01:51:19;;;;;;;;;;;1.10;99.90;;;;;;5012275;28;19948;-65
2023/12/18 01:53:48;;;;;;;;;;;1.10;99.90;;;;;;5014302;28;19948;-65
2023/12/18 01:56:15;;;;;;;;;;;1.10;99.90;;;;;;5009918;28;19945;-65
2023/12/18 01:58:44;;;;;;;;;;;1.00;99.90;;;;;;5009784;28;19984;-65
2023/12/18 02:01:10;;;;;;;;;;;0.90;99.90;;;;;;5008716;28;19954;-65
2023/12/18 02:03:37;;;;;;;;;;;0.80;99.90;;;;;;5010530;28;20085;-65
2023/12/18 02:06:04;;;;;;;;;;;0.70;99.90;;;;;;5005756;28;19976;-65
2023/12/18 02:08:31;;;;;;;;;;;0.70;99.90;;;;;;5009663;28;19952;-65
2023/12/18 02:10:57;;;;;;;;;;;0.80;99.90;;;;;;5010049;28;20061;-69
2023/12/18 02:13:22;;;;;;;;;;;0.80;99.90;;;;;;5011784;28;19948;-69
2023/12/18 02:15:48;;;;;;;;;;;0.80;99.90;;;;;;5012710;28;20034;-69
2023/12/18 02:18:13;;;;;;;;;;;0.80;99.90;;;;;;5011146;28;19946;-69
2023/12/18 02:20:42;;;;;;;;;;;0.80;99.90;;;;;;5013193;28;19983;-69
2023/12/18 02:23:08;;;;;;;;;;;0.90;99.90;;;;;;5005748;28;19952;-68
2023/12/18 02:25:33;;;;;;;;;;;0.90;99.90;;;;;;5006049;28;20442;-69
2023/12/18 02:27:59;;;;;;;;;;;0.90;99.90;;;;;;5009980;28;19947;-68
2023/12/18 02:30:24;;;;;;;;;;;0.90;99.90;;;;;;5013290;28;19972;-68
2023/12/18 02:32:50;;;;;;;;;;;0.90;99.90;;;;;;5009617;28;20003;-69
2023/12/18 02:35:16;;;;;;;;;;;0.80;99.90;;;;;;5010233;28;19952;-69
2023/12/18 02:37:42;;;;;;;;;;;0.60;99.90;;;;;;5007649;28;20430;-68
2023/12/18 02:40:07;;;;;;;;;;;0.60;99.90;;;;;;5005459;28;19945;-67
2023/12/18 02:42:33;;;;;;;;;;;0.60;99.90;;;;;;5006639;28;20509;-69
2023/12/18 02:44:59;;;;;;;;;;;0.70;99.90;;;;;;5010212;28;19956;-69
2023/12/18 02:47:25;;;;;;;;;;;0.70;99.90;;;;;;5008510;28;20003;-64
2023/12/18 02:49:50;;;;;;;;;;;0.60;99.90;;;;;;5003568;28;19961;-64
2023/12/18 02:52:16;;;;;;;;;;;0.50;99.90;;;;;;5005559;28;19950;-64
2023/12/18 02:54:41;;;;;;;;;;;0.50;99.90;;;;;;5003949;28;19955;-64
2023/12/18 02:57:07;;;;;;;;;;;0.50;99.90;;;;;;5003229;28;19952;-64
2023/12/18 02:59:32;;;;;;;;;;;0.50;99.90;;;;;;5007178;28;20030;-64
2023/12/18 03:01:58;;;;;;;;;;;0.40;99.90;;;;;;5004853;28;20687;-64
2023/12/18 03:04:23;;;;;;;;;;;0.40;99.90;;;;;;5008892;28;19998;-64
2023/12/18 03:06:49;;;;;;;;;;;0.50;99.90;;;;;;5011015;28;20185;-64
2023/12/18 03:09:14;;;;;;;;;;;0.50;99.90;;;;;;5007057;28;20108;-64
2023/12/18 03:11:40;;;;;;;;;;;0.50;99.90;;;;;;5009371;28;20377;-63
2023/12/18 03:14:06;;;;;;;;;;;0.50;99.90;;;;;;5012608;28;19964;-64
2023/12/18 03:16:31;;;;;;;;;;;0.60;99.90;;;;;;5005779;28;19946;-64
2023/12/18 03:18:57;;;;;;;;;;;0.60;99.90;;;;;;5003103;28;19969;-64
2023/12/18 03:21:22;;;;;;;;;;;0.60;99.90;;;;;;5008245;28;19950;-64
2023/12/18 03:23:47;;;;;;;;;;;0.60;99.90;;;;;;5006323;28;19958;-64
2023/12/18 03:26:13;;;;;;;;;;;0.50;99.90;;;;;;5006073;28;21175;-64
2023/12/18 03:28:39;;;;;;;;;;;0.40;99.90;;;;;;5003325;28;19940;-64
2023/12/18 03:31:04;;;;;;;;;;;0.40;99.90;;;;;;5005005;28;20431;-64
2023/12/18 03:33:30;;;;;;;;;;;0.40;99.90;;;;;;5001569;28;20160;-65
2023/12/18 03:35:55;;;;;;;;;;;0.40;99.90;;;;;;5002509;28;19952;-64
2023/12/18 03:38:21;;;;;;;;;;;0.40;99.90;;;;;;5005806;28;20415;-65
2023/12/18 03:40:46;;;;;;;;;;;0.30;99.90;;;;;;5005973;28;19946;-65
2023/12/18 03:43:12;;;;;;;;;;;0.40;99.90;;;;;;5005440;28;19978;-69
2023/12/18 03:45:38;;;;;;;;;;;0.40;99.90;;;;;;5005820;28;20015;-69
2023/12/18 03:48:03;;;;;;;;;;;0.40;99.90;;;;;;5002659;28;20904;-69
2023/12/18 03:50:29;;;;;;;;;;;0.50;99.90;;;;;;5002328;28;20026;-69
2023/12/18 03:52:54;;;;;;;;;;;0.60;99.90;;;;;;5004878;28;19968;-69
2023/12/18 03:55:20;;;;;;;;;;;0.60;99.90;;;;;;5007451;28;19986;-69
2023/12/18 03:57:45;;;;;;;;;;;0.60;99.90;;;;;;5008337;28;20012;-69
2023/12/18 04:00:11;;;;;;;;;;;0.70;99.90;;;;;;5010972;28;20407;-65
2023/12/18 04:02:37;;;;;;;;;;;0.70;99.90;;;;;;5005208;28;20079;-65
2023/12/18 04:05:02;;;;;;;;;;;0.80;99.90;;;;;;5011422;28;19951;-64
2023/12/18 04:07:28;;;;;;;;;;;0.80;99.90;;;;;;5007059;28;20021;-65
2023/12/18 04:09:53;;;;;;;;;;;0.90;99.90;;;;;;5009843;28;19975;-65
2023/12/18 04:12:19;;;;;;;;;;;1.00;99.90;;;;;;5007789;28;19958;-64
2023/12/18 04:14:44;;;;;;;;;;;1.00;99.90;;;;;;5007459;28;19942;-64
2023/12/18 04:17:10;;;;;;;;;;;1.00;99.90;;;;;;5003669;28;19987;-65
2023/12/18 04:19:35;;;;;;;;;;;1.10;99.90;;;;;;5007886;28;19945;-65
2023/12/18 04:22:01;;;;;;;;;;;1.10;99.90;;;;;;5007314;28;20728;-65
2023/12/18 04:24:27;;;;;;;;;;;1.10;99.90;;;;;;5006303;28;19942;-64
2023/12/18 04:26:53;;;;;;;;;;;1.00;99.90;;;;;;5010154;28;19961;-65
2023/12/18 04:29:19;;;;;;;;;;;1.10;99.90;;;;;;5010010;28;20447;-65
2023/12/18 04:31:44;;;;;;;;;;;1.00;99.90;;;;;;5010235;28;20014;-65
2023/12/18 04:34:10;;;;;;;;;;;1.00;99.90;;;;;;5005450;28;20010;-65
2023/12/18 04:36:38;;;;;;;;;;;1.00;99.90;;;;;;5008011;28;19953;-65
2023/12/18 04:39:04;;;;;;;;;;;1.00;99.90;;;;;;5022941;28;19953;-65
2023/12/18 04:41:30;;;;;;;;;;;1.00;99.90;;;;;;5006407;28;19940;-65
2023/12/18 04:43:55;;;;;;;;;;;1.10;99.90;;;;;;5006247;28;20048;-65
2023/12/18 04:46:21;;;;;;;;;;;1.10;99.90;;;;;;5008120;28;19952;-65
2023/12/18 04:48:46;;;;;;;;;;;1.10;99.90;;;;;;5009173;28;20051;-65
2023/12/18 04:51:12;;;;;;;;;;;1.10;99.90;;;;;;5004128;28;20046;-65
2023/12/18 04:53:38;;;;;;;;;;;1.00;99.90;;;;;;5008130;28;19940;-65
2023/12/18 04:56:04;;;;;;;;;;;1.00;99.90;;;;;;5007951;28;20401;-70
2023/12/18 04:58:30;;;;;;;;;;;1.00;99.90;;;;;;5004253;28;20001;-70
2023/12/18 05:00:56;;;;;;;;;;;0.90;99.90;;;;;;5002342;28;19942;-70
2023/12/18 05:03:22;;;;;;;;;;;0.90;99.90;;;;;;5011905;28;19997;-70
2023/12/18 05:05:47;;;;;;;;;;;0.90;99.90;;;;;;5011646;28;20455;-70
2023/12/18 05:08:13;;;;;;;;;;;0.90;99.90;;;;;;5012410;28;19942;-70
2023/12/18 05:10:38;;;;;;;;;;;0.90;99.90;;;;;;5015018;28;20141;-69
2023/12/18 05:13:04;;;;;;;;;;;1.00;99.90;;;;;;5016204;28;19951;-69
2023/12/18 05:15:29;;;;;;;;;;;0.90;99.90;;;;;;5013361;28;20067;-65
2023/12/18 05:17:55;;;;;;;;;;;1.00;99.90;;;;;;5009681;28;20560;-65
2023/12/18 05:20:20;;;;;;;;;;;1.00;99.90;;;;;;5012206;28;19956;-64
2023/12/18 05:22:46;;;;;;;;;;;1.00;99.90;;;;;;5014393;28;19949;-64
2023/12/18 05:25:11;;;;;;;;;;;1.00;99.90;;;;;;5013764;28;20002;-64
2023/12/18 05:27:37;;;;;;;;;;;1.10;99.90;;;;;;5013991;28;19937;-64
2023/12/18 05:30:03;;;;;;;;;;;1.00;99.90;;;;;;5012744;28;20098;-64
2023/12/18 05:32:29;;;;;;;;;;;1.00;99.90;;;;;;5012202;28;19949;-69
2023/12/18 05:34:54;;;;;;;;;;;1.10;99.90;;;;;;5010681;28;19945;-69
2023/12/18 05:37:20;;;;;;;;;;;1.10;99.90;;;;;;5033773;28;19950;-69
2023/12/18 05:39:46;;;;;;;;;;;1.10;99.90;;;;;;5009371;28;19947;-69
2023/12/18 05:42:11;;;;;;;;;;;1.10;99.90;;;;;;5012400;28;19947;-69
2023/12/18 05:44:37;;;;;;;;;;;1.20;99.90;;;;;;5011329;28;19947;-69
2023/12/18 05:47:02;;;;;;;;;;;1.20;99.90;;;;;;5017567;28;19947;-69
2023/12/18 05:49:28;;;;;;;;;;;1.20;99.90;;;;;;5014987;28;19983;-69
2023/12/18 05:51:54;;;;;;;;;;;1.20;99.90;;;;;;5024914;28;19940;-70
2023/12/18 05:54:20;;;;;;;;;;;1.20;99.90;;;;;;5011507;28;19954;-70
2023/12/18 05:56:45;;;;;;;;;;;1.20;99.90;;;;;;5014809;28;19957;-69
2023/12/18 05:59:11;;;;;;;;;;;1.20;99.90;;;;;;5010607;28;19946;-70
2023/12/18 06:01:37;;;;;;;;;;;1.20;99.90;;;;;;5011760;28;19997;-71
2023/12/18 06:04:03;;;;;;;;;;;1.20;99.90;;;;;;5020636;28;20041;-71
2023/12/18 06:06:28;;;;;;;;;;;1.30;99.90;;;;;;5006461;28;19968;-72
2023/12/18 06:08:54;;;;;;;;;;;1.40;99.90;;;;;;4995028;28;19955;-65
2023/12/18 06:11:19;;;;;;;;;;;1.50;99.90;;;;;;5004329;28;20032;-65
2023/12/18 06:13:45;;;;;;;;;;;1.60;99.90;;;;;;5006409;28;20384;-65
2023/12/18 06:16:10;;;;;;;;;;;1.70;99.90;;;;;;5006004;28;19985;-65
2023/12/18 06:18:36;;;;;;;;;;;1.70;99.90;;;;;;5007289;28;20094;-65
2023/12/18 06:21:03;;;;;;;;;;;1.70;99.90;;;;;;4999556;28;19940;-64
2023/12/18 06:23:28;;;;;;;;;;;1.70;99.90;;;;;;5007771;28;19955;-65
2023/12/18 06:25:54;;;;;;;;;;;1.80;99.90;;;;;;5006240;28;20351;-64
2023/12/18 06:28:19;;;;;;;;;;;1.80;99.90;;;;;;5003572;28;20506;-64
2023/12/18 06:30:45;;;;;;;;;;;1.80;99.90;;;;;;4987363;28;19978;-65
2023/12/18 06:33:10;;;;;;;;;;;1.80;99.90;;;;;;4989385;28;19942;-65
2023/12/18 06:35:36;;;;;;;;;;;1.80;99.90;;;;;;5002762;28;19946;-65
2023/12/18 06:38:01;;;;;;;;;;;1.80;99.90;;;;;;4991485;28;19948;-65
2023/12/18 06:40:27;;;;;;;;;;;1.90;99.90;;;;;;4996123;28;19946;-65
2023/12/18 06:42:52;;;;;;;;;;;1.90;99.90;;;;;;5002425;28;20158;-66
2023/12/18 06:45:18;;;;;;;;;;;1.90;99.90;;;;;;5010072;28;19973;-65
2023/12/18 06:47:43;;;;;;;;;;;1.80;99.90;;;;;;5005666;28;20307;-66
2023/12/18 06:50:09;;;;;;;;;;;1.80;99.90;;;;;;5015948;28;19992;-65
2023/12/18 06:52:34;;;;;;;;;;;1.80;99.90;;;;;;5011964;28;20011;-66
2023/12/18 06:55:00;;;;;;;;;;;1.70;99.90;;;;;;5016414;28;19947;-65
2023/12/18 06:57:25;;;;;;;;;;;1.60;99.90;;;;;;5013815;28;20392;-65
2023/12/18 06:59:51;;;;;;;;;;;1.60;99.90;;;;;;5016693;28;19949;-65
2023/12/18 07:02:16;;;;;;;;;;;1.50;99.90;;;;;;5001732;28;19959;-66
2023/12/18 07:04:42;;;;;;;;;;;1.30;99.90;;;;;;5014547;28;20350;-70
2023/12/18 07:07:08;;;;;;;;;;;1.30;99.90;;;;;;5018368;28;20119;-71
2023/12/18 07:09:33;;;;;;;;;;;1.30;99.90;;;;;;5009977;28;19994;-71
2023/12/18 07:11:59;;;;;;;;;;;1.40;99.90;;;;;;5014322;28;20494;-71
2023/12/18 07:14:24;;;;;;;;;;;1.40;99.90;;;;;;5015980;28;19939;-71
2023/12/18 07:16:52;;;;;;;;;;;1.40;99.90;;;;;;5013001;28;19961;-71
2023/12/18 07:19:18;;;;;;;;;;;1.40;99.90;;;;;;5012139;28;19945;-71
2023/12/18 07:21:44;;;;;;;;;;;1.40;99.90;;;;;;5008476;28;19973;-71
2023/12/18 07:24:09;;;;;;;;;;;1.50;99.90;;;;;;5010395;28;19949;-71
2023/12/18 07:26:35;;;;;;;;;;;1.50;99.90;;;;;;5013021;28;20863;-71
2023/12/18 07:29:00;;;;;;;;;;;1.60;99.90;;;;;;5003892;28;20080;-71
2023/12/18 07:31:26;;;;;;;;;;;1.70;99.90;;;;;;5015718;28;20588;-71
2023/12/18 07:33:51;;;;;;;;;;;1.70;99.90;;;;;;5019602;28;20001;-71
2023/12/18 07:36:17;;;;;;;;;;;1.70;99.90;;;;;;5019761;28;20389;-71
2023/12/18 07:38:42;;;;;;;;;;;1.80;99.90;;;;;;5016402;28;19954;-71
2023/12/18 07:41:08;;;;;;;;;;;1.80;99.90;;;;;;5017104;28;19936;-72
2023/12/18 07:43:33;;;;;;;;;;;1.70;99.90;;;;;;5020749;28;19961;-71
2023/12/18 07:45:59;;;;;;;;;;;1.70;99.90;;;;;;5018851;28;19943;-71
2023/12/18 07:48:24;;;;;;;;;;;1.70;99.90;;;;;;5019639;28;19955;-71
2023/12/18 07:50:50;;;;;;;;;;;1.70;99.90;;;;;;5019840;28;20413;-71
2023/12/18 07:53:16;;;;;;;;;;;1.70;99.90;;;;;;5021651;28;19936;-71
2023/12/18 07:55:41;;;;;;;;;;;1.70;99.90;;;;;;5017780;28;20010;-71
2023/12/18 07:58:07;;;;;;;;;;;1.70;99.90;;;;;;5017301;28;20073;-71
2023/12/18 08:00:32;;;;;;;;;;;1.70;99.90;;;;;;5010071;28;19949;-71
2023/12/18 08:02:59;;;;;;;;;;;1.70;99.90;;;;;;5018544;28;19948;-71
2023/12/18 08:05:25;;;;;;;;;;;1.70;99.90;;;;;;5014777;28;20070;-71
2023/12/18 08:07:50;;;;;;;;;;;1.60;99.90;;;;;;5018191;28;19956;-71
2023/12/18 08:10:16;;;;;;;;;;;1.60;99.90;;;;;;5013304;28;20362;-71
2023/12/18 08:12:42;;;;;;;;;;;1.70;99.90;;;;;;5016642;28;19955;-70
2023/12/18 08:15:07;;;;;;;;;;;1.60;99.90;;;;;;5019266;28;19989;-71
2023/12/18 08:17:37;;;;;;;;;;;1.70;99.90;;;;;;5014239;28;20050;-71
2023/12/18 08:20:03;;;;;;;;;;;1.70;99.90;;;;;;5022950;28;19954;-71
2023/12/18 08:22:29;;;;;;;;;;;1.70;99.90;;;;;;5019271;28;20044;-71
2023/12/18 08:24:55;;;;;;;;;;;1.70;99.90;;;;;;5023262;28;20034;-71
2023/12/18 08:27:20;;;;;;;;;;;1.70;99.90;;;;;;5009936;28;20439;-71
2023/12/18 08:29:46;;;;;;;;;;;1.80;99.90;;;;;;5012157;28;19961;-71
2023/12/18 08:32:11;;;;;;;;;;;1.80;99.90;;;;;;5020417;28;21646;-71
2023/12/18 08:34:37;;;;;;;;;;;1.90;99.90;;;;;;5017778;28;19944;-71
2023/12/18 08:37:03;;;;;;;;;;;1.90;99.90;;;;;;5012641;28;20557;-71
2023/12/18 08:39:29;;;;;;;;;;;1.90;99.90;;;;;;5018333;28;19951;-71
2023/12/18 08:41:54;;;;;;;;;;;1.90;99.90;;;;;;5012323;28;19936;-71
2023/12/18 08:44:20;;;;;;;;;;;1.90;99.90;;;;;;5013510;28;19968;-71
2023/12/18 08:46:45;;;;;;;;;;;1.80;99.90;;;;;;5009280;28;20468;-71
2023/12/18 08:49:11;;;;;;;;;;;1.70;99.90;;;;;;5019120;28;19973;-71
2023/12/18 08:51:37;;;;;;;;;;;1.60;99.90;;;;;;5013583;28;19943;-70
2023/12/18 08:54:04;;;;;;;;;;;1.60;99.90;;;;;;5021012;28;19942;-72
2023/12/18 08:56:33;;;;;;;;;;;1.70;99.90;;;;;;5016398;28;20019;-72
2023/12/18 08:58:58;;;;;;;;;;;1.60;99.90;;;;;;5012160;28;19941;-72
2023/12/18 09:01:24;;;;;;;;;;;1.60;99.90;;;;;;5018398;28;21700;-72
2023/12/18 09:03:51;;;;;;;;;;;1.60;99.90;;;;;;5014965;28;20162;-72
2023/12/18 09:06:16;;;;;;;;;;;1.60;99.90;;;;;;5015901;28;19962;-71
2023/12/18 09:08:42;;;;;;;;;;;1.50;99.90;;;;;;5015390;28;20437;-72
2023/12/18 09:11:07;;;;;;;;;;;1.50;99.90;;;;;;5020507;28;20077;-72
2023/12/18 09:13:34;;;;;;;;;;;1.50;99.90;;;;;;5012330;28;19939;-72
2023/12/18 09:16:01;;;;;;;;;;;1.60;99.90;;;;;;5031759;28;19947;-72
2023/12/18 09:18:26;;;;;;;;;;;1.60;99.90;;;;;;5016823;28;19945;-72
2023/12/18 09:20:52;;;;;;;;;;;1.60;99.90;;;;;;5015693;28;19947;-73
2023/12/18 09:23:17;;;;;;;;;;;1.70;99.90;;;;;;5010604;28;19946;-72
2023/12/18 09:25:43;;;;;;;;;;;1.70;99.90;;;;;;5018526;28;19946;-74
2023/12/18 09:28:08;;;;;;;;;;;1.70;99.90;;;;;;5016454;28;19950;-74
2023/12/18 09:30:34;;;;;;;;;;;1.80;99.90;;;;;;5011547;28;20066;-74
2023/12/18 09:33:00;;;;;;;;;;;1.60;99.90;;;;;;5010749;28;20532;-74
2023/12/18 09:35:25;;;;;;;;;;;1.40;99.90;;;;;;5009581;28;19986;-73
2023/12/18 09:37:51;;;;;;;;;;;1.50;99.90;;;;;;5012921;28;19954;-73
2023/12/18 09:40:16;;;;;;;;;;;1.70;99.90;;;;;;5024992;28;19953;-72
2023/12/18 09:42:50;;;;;;;;;;;1.70;99.90;;;;;;5017532;28;19958;-73
2023/12/18 09:45:17;;;;;;;;;;;1.60;99.90;;;;;;5010857;28;19943;-72
2023/12/18 09:47:42;;;;;;;;;;;1.60;99.90;;;;;;5014031;28;19937;-73
2023/12/18 09:50:09;;;;;;;;;;;1.60;99.90;;;;;;5009930;28;20011;-72
2023/12/18 09:52:38;;;;;;;;;;;1.60;99.90;;;;;;5022508;28;19948;-72
2023/12/18 09:55:04;;;;;;;;;;;1.50;99.90;;;;;;5000797;28;19957;-72
2023/12/18 09:57:31;;;;;;;;;;;1.50;99.90;;;;;;5007780;28;19998;-73
2023/12/18 09:59:57;;;;;;;;;;;1.50;99.90;;;;;;5015907;28;20570;-72
2023/12/18 10:02:24;;;;;;;;;;;1.70;99.90;;;;;;5002949;28;19954;-72
2023/12/18 10:04:50;;;;;;;;;;;1.80;99.90;;;;;;5014605;28;20001;-72
2023/12/18 10:07:16;;;;;;;;;;;1.90;99.90;;;;;;4993633;28;19960;-72
2023/12/18 10:09:42;;;;;;;;;;;1.90;99.90;;;;;;5007479;28;19972;-72
2023/12/18 10:12:08;;;;;;;;;;;2.00;99.90;;;;;;5007956;28;20286;-73
2023/12/18 10:14:34;;;;;;;;;;;2.10;99.90;;;;;;5015287;28;19947;-72
2023/12/18 10:17:00;;;;;;;;;;;2.20;99.90;;;;;;5015441;28;19945;-72
2023/12/18 10:19:27;;;;;;;;;;;2.30;99.90;;;;;;5015143;28;19945;-71
2023/12/18 10:21:54;;;;;;;;;;;2.40;99.90;;;;;;5013296;28;19942;-72
2023/12/18 10:24:19;;;;;;;;;;;2.50;99.90;;;;;;5011832;28;19994;-73
2023/12/18 10:26:48;;;;;;;;;;;2.40;99.90;;;;;;5013710;28;20064;-66
2023/12/18 10:29:14;;;;;;;;;;;2.30;99.90;;;;;;5008967;28;19995;-66
2023/12/18 10:31:40;;;;;;;;;;;2.30;99.90;;;;;;5016804;28;20015;-66
2023/12/18 10:34:05;;;;;;;;;;;2.40;99.90;;;;;;5016729;28;19945;-66
2023/12/18 10:36:33;;;;;;;;;;;2.40;99.90;;;;;;5014125;28;20390;-64
2023/12/18 10:38:59;;;;;;;;;;;2.40;99.90;;;;;;5011059;28;19943;-66
2023/12/18 10:41:26;;;;;;;;;;;2.40;99.90;;;;;;5013950;28;19936;-65
2023/12/18 10:43:52;;;;;;;;;;;2.30;99.90;;;;;;5013045;28;19936;-66
2023/12/18 10:46:18;;;;;;;;;;;2.20;99.90;;;;;;5005532;28;19948;-66
2023/12/18 10:48:46;;;;;;;;;;;2.30;99.90;;;;;;5007479;28;19944;-66
2023/12/18 10:51:13;;;;;;;;;;;2.30;99.90;;;;;;5017840;28;20422;-66
2023/12/18 10:53:40;;;;;;;;;;;2.40;99.90;;;;;;5005612;28;20056;-66
2023/12/18 10:56:06;;;;;;;;;;;2.30;99.90;;;;;;5017898;28;19935;-66
2023/12/18 10:58:34;;;;;;;;;;;2.40;99.90;;;;;;5027418;28;20283;-66
2023/12/18 11:01:00;;;;;;;;;;;2.30;99.90;;;;;;5013752;28;19945;-74
2023/12/18 11:03:27;;;;;;;;;;;2.30;99.90;;;;;;5008032;28;20049;-65
2023/12/18 11:05:54;;;;;;;;;;;2.30;99.90;;;;;;5015263;28;19972;-65
2023/12/18 11:08:20;;;;;;;;;;;2.30;99.90;;;;;;5015852;28;20036;-65
2023/12/18 11:10:46;;;;;;;;;;;2.20;99.90;;;;;;5004125;28;19974;-65
2023/12/18 11:13:16;;;;;;;;;;;2.30;99.90;;;;;;5013504;28;19947;-66
2023/12/18 11:15:45;;;;;;;;;;;2.40;99.90;;;;;;5016572;28;19992;-65
2023/12/18 11:18:10;;;;;;;;;;;2.40;99.90;;;;;;5006855;28;19936;-65
2023/12/18 11:20:39;;;;;;;;;;;2.40;99.90;;;;;;5012831;28;19942;-66
2023/12/18 11:23:05;;;;;;;;;;;2.50;99.90;;;;;;5011066;28;20185;-65
2023/12/18 11:25:31;;;;;;;;;;;2.40;99.90;;;;;;5019239;28;19996;-65
2023/12/18 11:28:00;;;;;;;;;;;2.40;99.90;;;;;;5017903;28;20006;-65
2023/12/18 11:30:36;;;;;;;;;;;2.40;99.90;;;;;;5021281;28;19970;-65
2023/12/18 11:33:05;;;;;;;;;;;2.40;99.90;;;;;;5016439;28;19946;-65
2023/12/18 11:35:32;;;;;;;;;;;2.30;99.90;;;;;;5018959;28;20337;-66
2023/12/18 11:38:09;;;;;;;;;;;2.20;99.90;;;;;;5015285;28;19952;-66
2023/12/18 11:40:35;;;;;;;;;;;2.10;99.90;;;;;;5015930;28;19953;-65
2023/12/18 11:43:01;;;;;;;;;;;2.10;99.90;;;;;;5014103;28;20483;-65
2023/12/18 11:45:27;;;;;;;;;;;2.20;99.90;;;;;;5019750;28;19936;-66
2023/12/18 11:47:56;;;;;;;;;;;2.30;99.90;;;;;;5005204;28;19943;-65
2023/12/18 11:50:24;;;;;;;;;;;2.50;99.90;;;;;;5015857;28;20138;-65
2023/12/18 11:52:50;;;;;;;;;;;2.60;99.90;;;;;;5014702;28;20035;-65
2023/12/18 11:55:34;;;;;;;;;;;2.70;99.90;;;;;;5018501;28;20089;-65
2023/12/18 11:58:00;;;;;;;;;;;2.80;99.90;;;;;;5008333;28;19945;-65
2023/12/18 12:00:27;;;;;;;;;;;2.90;99.90;;;;;;5018201;28;20031;-73
2023/12/18 12:02:53;;;;;;;;;;;2.90;99.90;;;;;;5009256;28;19947;-72
2023/12/18 12:05:19;;;;;;;;;;;3.00;99.90;;;;;;5002660;28;19975;-72
2023/12/18 12:07:51;;;;;;;;;;;3.00;99.90;;;;;;5005799;28;19942;-72
2023/12/18 12:10:17;;;;;;;;;;;3.00;99.90;;;;;;5007122;28;19970;-72
2023/12/18 12:12:43;;;;;;;;;;;3.00;99.90;;;;;;5012083;28;20599;-72
2023/12/18 12:15:09;;;;;;;;;;;3.00;99.90;;;;;;5007112;28;19990;-72
2023/12/18 12:17:34;;;;;;;;;;;3.10;99.90;;;;;;5010675;28;19950;-65
2023/12/18 12:20:00;;;;;;;;;;;3.10;99.90;;;;;;5004730;28;19997;-66
2023/12/18 12:22:25;;;;;;;;;;;3.10;99.90;;;;;;5003730;28;19980;-66
2023/12/18 12:24:51;;;;;;;;;;;3.10;99.90;;;;;;5010542;28;20009;-65
2023/12/18 12:27:17;;;;;;;;;;;3.20;99.90;;;;;;5017582;28;19944;-66
2023/12/18 12:29:42;;;;;;;;;;;3.10;99.90;;;;;;5018856;28;20364;-66
2023/12/18 12:32:08;;;;;;;;;;;3.20;99.90;;;;;;5022309;28;20020;-66
2023/12/18 12:34:34;;;;;;;;;;;3.20;99.90;;;;;;5014395;28;20036;-66
2023/12/18 12:37:00;;;;;;;;;;;3.10;99.90;;;;;;5013121;28;20302;-66
2023/12/18 12:39:26;;;;;;;;;;;3.00;99.90;;;;;;5017375;28;20485;-66
2023/12/18 12:41:51;;;;;;;;;;;3.00;99.90;;;;;;5021084;28;20029;-66
2023/12/18 12:44:17;;;;;;;;;;;3.00;99.90;;;;;;5021029;28;19947;-65
2023/12/18 12:46:42;;;;;;;;;;;3.10;99.90;;;;;;5013123;28;20037;-65
2023/12/18 12:49:11;;;;;;;;;;;3.10;99.90;;;;;;5012304;28;20387;-65
2023/12/18 12:51:40;;;;;;;;;;;3.10;99.90;;;;;;5015556;28;19989;-66
2023/12/18 12:54:06;;;;;;;;;;;3.10;99.90;;;;;;5023373;28;19978;-72
2023/12/18 12:56:32;;;;;;;;;;;3.20;99.90;;;;;;5010211;28;19947;-72
2023/12/18 12:58:57;;;;;;;;;;;3.30;99.90;;;;;;5012595;28;19967;-72
2023/12/18 13:01:23;;;;;;;;;;;3.30;99.90;;;;;;5002466;28;20617;-72
2023/12/18 13:03:50;;;;;;;;;;;3.20;99.90;;;;;;5013528;28;19969;-72
2023/12/18 13:06:16;;;;;;;;;;;3.20;99.90;;;;;;5010579;28;20426;-72
2023/12/18 13:08:42;;;;;;;;;;;3.20;99.90;;;;;;5011861;28;20065;-72
2023/12/18 13:11:08;;;;;;;;;;;3.20;99.90;;;;;;5019873;28;19972;-71
2023/12/18 13:13:34;;;;;;;;;;;3.30;99.90;;;;;;5016234;28;20376;-72
2023/12/18 13:15:59;;;;;;;;;;;3.30;99.90;;;;;;5015708;28;20041;-72
2023/12/18 13:18:25;;;;;;;;;;;3.40;99.90;;;;;;5013546;28;19996;-73
2023/12/18 13:20:50;;;;;;;;;;;3.40;99.90;;;;;;5021082;28;19966;-72
2023/12/18 13:23:16;;;;;;;;;;;3.30;99.90;;;;;;5016663;28;19954;-72
2023/12/18 13:25:42;;;;;;;;;;;3.40;99.90;;;;;;5020250;28;19943;-74
2023/12/18 13:28:07;;;;;;;;;;;3.30;99.90;;;;;;5016853;28;20008;-66
2023/12/18 13:30:33;;;;;;;;;;;3.30;99.90;;;;;;5031149;28;20746;-66
2023/12/18 13:32:58;;;;;;;;;;;3.40;99.90;;;;;;5016896;28;19941;-67
2023/12/18 13:35:24;;;;;;;;;;;3.40;99.90;;;;;;5021634;28;20650;-66
2023/12/18 13:37:49;;;;;;;;;;;3.40;99.90;;;;;;5009626;28;19948;-66
2023/12/18 13:40:15;;;;;;;;;;;3.50;99.90;;;;;;5018875;28;19946;-66
2023/12/18 13:42:40;;;;;;;;;;;3.60;99.90;;;;;;5008268;28;20486;-66
2023/12/18 13:45:07;;;;;;;;;;;3.70;99.90;;;;;;5014810;28;19996;-66
2023/12/18 13:47:32;;;;;;;;;;;3.70;99.90;;;;;;5014591;28;20046;-66
2023/12/18 13:49:59;;;;;;;;;;;3.80;99.90;;;;;;5012111;28;20063;-65
2023/12/18 13:52:25;;;;;;;;;;;4.00;99.90;;;;;;5022528;28;19947;-66
2023/12/18 13:54:51;;;;;;;;;;;4.00;99.90;;;;;;5014283;28;19943;-66
2023/12/18 13:57:17;;;;;;;;;;;4.00;99.90;;;;;;5013735;28;19964;-65
2023/12/18 13:59:42;;;;;;;;;;;3.80;99.90;;;;;;5011594;28;20905;-65
2023/12/18 14:02:08;;;;;;;;;;;3.70;99.90;;;;;;5016371;28;19946;-65
2023/12/18 14:04:33;;;;;;;;;;;3.50;99.90;;;;;;5015288;28;19984;-65
2023/12/18 14:06:59;;;;;;;;;;;3.30;99.90;;;;;;5021103;28;20003;-65
2023/12/18 14:09:24;;;;;;;;;;;3.20;99.90;;;;;;5004245;28;20007;-65
2023/12/18 14:11:50;;;;;;;;;;;3.20;99.90;;;;;;5013723;28;19956;-65
2023/12/18 14:14:17;;;;;;;;;;;3.10;99.90;;;;;;5013317;28;19947;-65
2023/12/18 14:16:42;;;;;;;;;;;3.10;99.90;;;;;;5019844;28;19939;-65
2023/12/18 14:19:08;;;;;;;;;;;2.90;99.90;;;;;;5013725;28;19947;-65
2023/12/18 14:21:33;;;;;;;;;;;2.90;99.90;;;;;;4993516;28;19950;-65
2023/12/18 14:23:59;;;;;;;;;;;2.80;99.90;;;;;;5009452;28;19963;-65